createdAt,value
2022-09-24T00:01:24.986Z,72.76
2022-09-24T00:03:54.132Z,72.85
2022-09-24T00:06:21.618Z,72.75
2022-09-24T00:08:50.531Z,73.13
2022-09-24T00:11:19.726Z,73.26
2022-09-24T00:13:46.641Z,73.43
2022-09-24T00:16:15.302Z,73.94
2022-09-24T00:18:42.594Z,73.74
2022-09-24T00:21:16.240Z,74.66
2022-09-24T00:23:43.001Z,74.29
2022-09-24T00:26:31.697Z,73.70
2022-09-24T00:28:59.237Z,73.35
2022-09-24T00:31:27.919Z,73.78
2022-09-24T00:33:54.676Z,73.62
2022-09-24T00:36:22.565Z,73.48
2022-09-24T00:38:51.384Z,73.78
2022-09-24T00:41:22.392Z,73.93
2022-09-24T00:43:49.694Z,74.26
2022-09-24T00:46:22.704Z,74.22
2022-09-24T00:48:51.870Z,74.17
2022-09-24T00:51:22.776Z,74.51
2022-09-24T00:53:55.236Z,74.74
2022-09-24T00:56:22.764Z,74.24
2022-09-24T00:58:53.152Z,73.63
2022-09-24T01:01:22.431Z,73.40
2022-09-24T01:03:50.563Z,73.97
2022-09-24T01:06:16.935Z,74.15
2022-09-24T01:08:43.897Z,74.33
2022-09-24T01:11:19.428Z,74.14
2022-09-24T01:14:07.761Z,73.56
2022-09-24T01:16:53.448Z,73.23
2022-09-24T01:19:41.134Z,74.10
2022-09-24T01:22:45.889Z,73.07
2022-09-24T01:25:12.196Z,73.14
2022-09-24T01:27:56.996Z,74.15
2022-09-24T01:30:25.268Z,73.94
2022-09-24T01:32:55.963Z,74.20
2022-09-24T01:35:39.255Z,74.38
2022-09-24T01:38:14.650Z,74.27
2022-09-24T01:40:43.754Z,74.23
2022-09-24T01:43:12.331Z,73.85
2022-09-24T01:45:40.231Z,74.27
2022-09-24T01:48:07.228Z,74.35
2022-09-24T01:50:42.499Z,73.96
2022-09-24T01:53:19.421Z,74.77
2022-09-24T01:55:50.439Z,74.81
2022-09-24T01:58:23.541Z,74.75
2022-09-24T02:00:56.937Z,74.45
2022-09-24T02:03:32.347Z,74.45
2022-09-24T02:06:04.409Z,74.23
2022-09-24T02:08:38.835Z,74.13
2022-09-24T02:11:07.822Z,74.49
2022-09-24T02:13:39.537Z,74.17
2022-09-24T02:16:09.594Z,74.91
2022-09-24T02:18:39.673Z,75.08
2022-09-24T02:21:10.300Z,75.23
2022-09-24T02:23:40.938Z,74.20
2022-09-24T02:26:07.438Z,73.85
2022-09-24T02:28:34.182Z,74.08
2022-09-24T02:31:06.841Z,73.73
2022-09-24T02:33:54.127Z,74.38
2022-09-24T02:36:24.897Z,74.36
2022-09-24T02:38:52.496Z,74.64
2022-09-24T02:41:23.911Z,73.39
2022-09-24T02:43:53.909Z,72.54
2022-09-24T02:46:20.299Z,73.69
2022-09-24T02:48:46.743Z,74.10
2022-09-24T02:51:13.146Z,74.71
2022-09-24T02:53:39.462Z,74.86
2022-09-24T02:56:06.558Z,75.09
2022-09-24T02:58:32.881Z,75.53
2022-09-24T03:00:59.246Z,75.76
2022-09-24T03:03:26.354Z,75.19
2022-09-24T03:05:54.703Z,75.01
2022-09-24T03:08:22.301Z,74.63
2022-09-24T03:10:49.585Z,75.02
2022-09-24T03:13:16.163Z,74.49
2022-09-24T03:15:42.617Z,74.76
2022-09-24T03:18:08.969Z,75.45
2022-09-24T03:20:35.314Z,75.09
2022-09-24T03:23:01.710Z,74.66
2022-09-24T03:25:28.163Z,74.93
2022-09-24T03:27:54.771Z,74.97
2022-09-24T03:30:39.762Z,74.91
2022-09-24T03:33:06.119Z,74.86
2022-09-24T03:35:32.677Z,75.27
2022-09-24T03:37:59.156Z,75.32
2022-09-24T03:40:25.662Z,75.36
2022-09-24T03:42:52.069Z,75.71
2022-09-24T03:45:18.468Z,76.30
2022-09-24T03:47:44.786Z,76.01
2022-09-24T03:50:11.629Z,76.85
2022-09-24T03:52:39.171Z,77.23
2022-09-24T03:55:06.095Z,77.43
2022-09-24T03:57:32.442Z,77.20
2022-09-24T03:59:59.386Z,76.83
2022-09-24T04:02:25.886Z,76.63
2022-09-24T04:04:52.346Z,76.78
2022-09-24T04:07:18.835Z,77.12
2022-09-24T04:09:45.210Z,77.21
2022-09-24T04:12:12.060Z,76.98
2022-09-24T04:14:38.487Z,77.12
2022-09-24T04:17:04.885Z,77.04
2022-09-24T04:19:31.835Z,76.31
2022-09-24T04:21:58.201Z,76.21
2022-09-24T04:24:24.538Z,76.31
2022-09-24T04:26:50.962Z,76.69
2022-09-24T04:29:18.255Z,76.14
2022-09-24T04:31:46.007Z,76.35
2022-09-24T04:34:12.533Z,76.51
2022-09-24T04:36:38.908Z,76.77
2022-09-24T04:39:05.709Z,76.08
2022-09-24T04:41:32.053Z,77.00
2022-09-24T04:43:59.357Z,76.28
2022-09-24T04:46:25.750Z,76.23
2022-09-24T04:48:53.153Z,75.88
2022-09-24T04:51:21.300Z,76.37
2022-09-24T04:53:50.844Z,76.08
2022-09-24T04:56:17.489Z,76.25
2022-09-24T04:58:43.837Z,76.35
2022-09-24T05:01:10.718Z,75.60
2022-09-24T05:03:37.095Z,75.68
2022-09-24T05:06:03.461Z,75.60
2022-09-24T05:08:29.840Z,75.52
2022-09-24T05:10:56.150Z,75.43
2022-09-24T05:13:22.671Z,75.79
2022-09-24T05:15:49.043Z,75.26
2022-09-24T05:18:15.482Z,75.26
2022-09-24T05:20:41.967Z,75.67
2022-09-24T05:23:08.349Z,75.53
2022-09-24T05:25:54.681Z,75.44
2022-09-24T05:28:21.390Z,75.30
2022-09-24T05:30:47.706Z,75.99
2022-09-24T05:33:14.132Z,76.24
2022-09-24T05:35:40.487Z,76.36
2022-09-24T05:38:06.858Z,76.54
2022-09-24T05:40:48.455Z,76.59
2022-09-24T05:43:16.235Z,76.88
2022-09-24T05:45:44.678Z,76.93
2022-09-24T05:48:11.756Z,77.53
2022-09-24T05:50:38.232Z,77.47
2022-09-24T05:53:05.898Z,77.67
2022-09-24T05:55:32.873Z,77.50
2022-09-24T05:58:07.732Z,77.25
2022-09-24T06:00:35.926Z,77.20
2022-09-24T06:03:10.326Z,77.26
2022-09-24T06:05:36.825Z,77.38
2022-09-24T06:08:04.483Z,76.92
2022-09-24T06:10:31.037Z,77.04
2022-09-24T06:12:57.382Z,76.24
2022-09-24T06:15:24.234Z,76.90
2022-09-24T06:17:53.485Z,76.93
2022-09-24T06:20:19.912Z,76.83
2022-09-24T06:22:46.515Z,76.55
2022-09-24T06:25:12.958Z,76.45
2022-09-24T06:27:39.262Z,76.42
2022-09-24T06:30:06.545Z,75.85
2022-09-24T06:32:32.962Z,76.04
2022-09-24T06:34:59.463Z,75.83
2022-09-24T06:37:25.856Z,76.56
2022-09-24T06:39:52.175Z,76.59
2022-09-24T06:42:18.751Z,75.97
2022-09-24T06:44:45.123Z,74.92
2022-09-24T06:47:12.550Z,74.49
2022-09-24T06:49:38.884Z,74.54
2022-09-24T06:52:05.230Z,73.81
2022-09-24T06:54:31.572Z,74.73
2022-09-24T06:56:57.952Z,74.42
2022-09-24T06:59:24.287Z,74.93
2022-09-24T07:01:50.711Z,74.88
2022-09-24T07:04:17.663Z,73.49
2022-09-24T07:07:02.813Z,72.69
2022-09-24T07:09:29.177Z,73.78
2022-09-24T07:11:58.006Z,72.93
2022-09-24T07:14:24.410Z,73.34
2022-09-24T07:16:50.902Z,74.06
2022-09-24T07:19:17.219Z,73.43
2022-09-24T07:21:43.628Z,73.55
2022-09-24T07:24:10.021Z,72.01
2022-09-24T07:26:36.336Z,72.16
2022-09-24T07:29:04.060Z,72.44
2022-09-24T07:31:30.447Z,72.77
2022-09-24T07:33:56.821Z,72.36
2022-09-24T07:36:23.228Z,71.46
2022-09-24T07:38:50.027Z,72.72
2022-09-24T07:41:17.762Z,70.41
2022-09-24T07:43:44.197Z,71.37
2022-09-24T07:46:10.795Z,71.54
2022-09-24T07:48:37.160Z,70.15
2022-09-24T07:51:05.272Z,70.24
2022-09-24T07:53:31.802Z,69.79
2022-09-24T07:56:01.449Z,69.74
2022-09-24T07:58:28.077Z,69.71
2022-09-24T08:00:57.932Z,70.16
2022-09-24T08:03:24.373Z,68.87
2022-09-24T08:05:50.826Z,68.37
2022-09-24T08:08:17.224Z,69.06
2022-09-24T08:10:43.749Z,68.07
2022-09-24T08:13:10.218Z,67.61
2022-09-24T08:15:36.636Z,67.49
2022-09-24T08:18:04.787Z,67.93
2022-09-24T08:20:34.294Z,69.22
2022-09-24T08:23:02.261Z,69.14
2022-09-24T08:25:29.121Z,68.23
2022-09-24T08:27:55.497Z,67.67
2022-09-24T08:30:21.892Z,65.43
2022-09-24T08:32:48.314Z,65.04
2022-09-24T08:35:15.867Z,66.13
2022-09-24T08:37:42.212Z,66.72
2022-09-24T08:40:18.790Z,69.43
2022-09-24T08:42:51.169Z,69.99
2022-09-24T08:45:36.785Z,69.80
2022-09-24T08:48:22.657Z,69.55
2022-09-24T08:50:58.363Z,69.80
2022-09-24T08:53:32.694Z,69.41
2022-09-24T08:56:00.700Z,70.04
2022-09-24T08:58:53.448Z,67.63
2022-09-24T09:01:44.597Z,69.71
2022-09-24T09:04:43.548Z,68.82
2022-09-24T09:07:12.613Z,65.90
2022-09-24T09:10:04.100Z,68.06
2022-09-24T09:12:48.630Z,66.82
2022-09-24T09:15:31.491Z,66.77
2022-09-24T09:18:14.615Z,64.23
2022-09-24T09:20:46.056Z,66.68
2022-09-24T09:23:26.188Z,64.21
2022-09-24T09:25:56.692Z,64.57
2022-09-24T09:28:23.359Z,66.22
2022-09-24T09:31:06.955Z,65.33
2022-09-24T09:34:10.651Z,62.83
2022-09-24T09:36:55.077Z,63.44
2022-09-24T09:39:40.295Z,63.36
2022-09-24T09:42:32.605Z,64.50
2022-09-24T09:45:09.024Z,65.84
2022-09-24T09:47:45.905Z,63.91
2022-09-24T09:50:39.359Z,63.79
2022-09-24T09:53:05.887Z,64.00
2022-09-24T09:55:36.111Z,61.97
2022-09-24T09:58:19.717Z,62.48
2022-09-24T10:00:49.355Z,62.15
2022-09-24T10:03:29.302Z,60.86
2022-09-24T10:06:05.142Z,61.00
2022-09-24T10:08:31.568Z,59.70
2022-09-24T10:11:00.310Z,60.80
2022-09-24T10:13:27.604Z,60.32
2022-09-24T10:16:00.635Z,58.83
2022-09-24T10:18:32.690Z,60.92
2022-09-24T10:21:02.623Z,59.14
2022-09-24T10:23:39.379Z,59.69
2022-09-24T10:26:06.971Z,61.20
2022-09-24T10:28:58.058Z,60.32
2022-09-24T10:31:27.001Z,60.29
2022-09-24T10:33:56.023Z,59.30
2022-09-24T10:36:25.115Z,59.53
2022-09-24T10:39:03.482Z,60.91
2022-09-24T10:41:31.858Z,58.08
2022-09-24T10:44:03.010Z,60.07
2022-09-24T10:46:58.436Z,59.02
2022-09-24T10:49:43.956Z,61.93
2022-09-24T10:52:40.775Z,59.93
2022-09-24T10:55:35.983Z,60.15
2022-09-24T10:58:38.805Z,60.23
2022-09-24T11:01:19.268Z,62.44
2022-09-24T11:04:12.814Z,61.70
2022-09-24T11:07:14.315Z,64.28
2022-09-24T11:10:18.423Z,60.85
2022-09-24T11:13:21.433Z,64.01
2022-09-24T11:16:19.643Z,63.98
2022-09-24T11:18:58.749Z,65.67
2022-09-24T11:21:57.546Z,62.57
2022-09-24T11:24:47.102Z,62.44
2022-09-24T11:27:32.046Z,63.24
2022-09-24T11:30:10.642Z,64.78
2022-09-24T11:32:51.938Z,65.45
2022-09-24T11:35:42.674Z,65.07
2022-09-24T11:38:13.309Z,64.18
2022-09-24T11:40:48.896Z,61.95
2022-09-24T11:43:52.714Z,65.34
2022-09-24T11:46:47.232Z,64.81
2022-09-24T11:49:38.454Z,67.18
2022-09-24T11:52:13.407Z,64.37
2022-09-24T11:54:58.235Z,66.49
2022-09-24T11:57:33.613Z,66.18
2022-09-24T12:00:13.807Z,66.64
2022-09-24T12:02:52.173Z,65.31
2022-09-24T12:05:35.594Z,65.53
2022-09-24T12:08:10.249Z,66.27
2022-09-24T12:11:01.362Z,65.72
2022-09-24T12:13:45.064Z,64.58
2022-09-24T12:16:19.544Z,64.45
2022-09-24T12:19:25.619Z,63.56
2022-09-24T12:21:53.535Z,63.14
2022-09-24T12:24:30.887Z,63.27
2022-09-24T12:27:01.109Z,62.67
2022-09-24T12:30:06.695Z,62.31
2022-09-24T12:32:56.963Z,61.23
2022-09-24T12:35:29.959Z,61.34
2022-09-24T12:38:19.342Z,60.84
2022-09-24T12:41:07.934Z,60.59
2022-09-24T12:43:39.183Z,61.18
2022-09-24T12:46:08.775Z,60.42
2022-09-24T12:48:38.549Z,60.12
2022-09-24T12:51:10.178Z,59.91
2022-09-24T12:53:40.322Z,60.70
2022-09-24T12:56:07.761Z,60.28
2022-09-24T12:58:43.608Z,61.36
2022-09-24T13:01:25.411Z,61.23
2022-09-24T13:04:25.283Z,61.04
2022-09-24T13:06:52.538Z,61.35
2022-09-24T13:09:38.359Z,61.81
2022-09-24T13:12:17.702Z,59.87
2022-09-24T13:15:03.025Z,60.26
2022-09-24T13:17:32.866Z,61.42
2022-09-24T13:20:04.890Z,60.68
2022-09-24T13:22:34.586Z,60.91
2022-09-24T13:25:10.357Z,61.35
2022-09-24T13:27:39.700Z,61.15
2022-09-24T13:30:09.416Z,60.15
2022-09-24T13:32:46.486Z,60.07
2022-09-24T13:35:22.196Z,60.23
2022-09-24T13:37:55.687Z,60.04
2022-09-24T13:40:27.306Z,59.92
2022-09-24T13:43:16.131Z,61.37
2022-09-24T13:45:45.149Z,58.81
2022-09-24T13:48:40.713Z,59.62
2022-09-24T13:51:12.940Z,60.91
2022-09-24T13:54:16.554Z,59.11
2022-09-24T13:56:55.169Z,58.03
2022-09-24T13:59:21.584Z,57.47
2022-09-24T14:01:48.079Z,57.88
2022-09-24T14:04:19.416Z,57.63
2022-09-24T14:06:50.779Z,57.94
2022-09-24T14:09:22.959Z,57.86
2022-09-24T14:11:52.196Z,58.22
2022-09-24T14:14:24.548Z,57.98
2022-09-24T14:16:54.896Z,58.62
2022-09-24T14:19:23.165Z,58.34
2022-09-24T14:21:56.687Z,57.86
2022-09-24T14:24:35.779Z,58.08
2022-09-24T14:27:07.108Z,56.47
2022-09-24T14:29:47.683Z,58.16
2022-09-24T14:32:24.614Z,58.70
2022-09-24T14:35:00.551Z,59.10
2022-09-24T14:37:32.263Z,58.72
2022-09-24T14:40:04.297Z,56.27
2022-09-24T14:42:37.904Z,57.11
2022-09-24T14:45:08.048Z,57.11
2022-09-24T14:47:36.746Z,56.87
2022-09-24T14:50:05.941Z,56.94
2022-09-24T14:52:39.032Z,57.11
2022-09-24T14:55:22.123Z,60.21
2022-09-24T14:57:55.285Z,56.20
2022-09-24T15:00:29.652Z,56.48
2022-09-24T15:03:13.087Z,55.54
2022-09-24T15:05:39.845Z,56.22
2022-09-24T15:08:21.536Z,57.03
2022-09-24T15:11:15.896Z,57.07
2022-09-24T15:13:42.736Z,57.89
2022-09-24T15:16:34.792Z,56.87
2022-09-24T15:19:07.203Z,56.78
2022-09-24T15:21:34.401Z,56.29
2022-09-24T15:24:01.082Z,55.56
2022-09-24T15:26:30.341Z,57.22
2022-09-24T15:28:58.338Z,56.51
2022-09-24T15:31:25.265Z,57.53
2022-09-24T15:33:52.504Z,59.38
2022-09-24T15:36:21.022Z,61.39
2022-09-24T15:38:49.887Z,62.99
2022-09-24T15:41:16.573Z,62.63
2022-09-24T15:43:43.036Z,62.20
2022-09-24T15:46:09.393Z,63.41
2022-09-24T15:48:35.806Z,63.39
2022-09-24T15:51:08.994Z,62.72
2022-09-24T15:53:37.405Z,63.58
2022-09-24T15:56:03.940Z,64.64
2022-09-24T15:58:30.294Z,66.65
2022-09-24T16:00:56.785Z,66.61
2022-09-24T16:03:29.117Z,64.81
2022-09-24T16:05:56.591Z,65.79
2022-09-24T16:08:23.130Z,66.13
2022-09-24T16:10:50.278Z,66.81
2022-09-24T16:13:17.732Z,67.84
2022-09-24T16:15:44.245Z,67.71
2022-09-24T16:18:13.926Z,66.61
2022-09-24T16:20:41.254Z,67.41
2022-09-24T16:23:14.054Z,68.26
2022-09-24T16:25:42.540Z,69.57
2022-09-24T16:28:09.067Z,69.06
2022-09-24T16:30:38.644Z,68.61
2022-09-24T16:33:05.317Z,69.72
2022-09-24T16:35:31.824Z,69.92
2022-09-24T16:37:58.301Z,69.65
2022-09-24T16:40:24.768Z,69.43
2022-09-24T16:42:51.340Z,70.21
2022-09-24T16:45:18.097Z,70.65
2022-09-24T16:47:44.504Z,69.81
2022-09-24T16:50:11.124Z,68.72
2022-09-24T16:52:37.578Z,68.09
2022-09-24T16:55:04.353Z,68.14
2022-09-24T16:57:30.835Z,67.43
2022-09-24T16:59:57.303Z,68.00
2022-09-24T17:02:23.843Z,67.61
2022-09-24T17:04:52.126Z,67.73
2022-09-24T17:07:18.497Z,68.14
2022-09-24T17:10:03.765Z,67.82
2022-09-24T17:12:30.319Z,68.42
2022-09-24T17:14:57.671Z,68.53
2022-09-24T17:17:24.105Z,68.85
2022-09-24T17:19:50.561Z,68.77
2022-09-24T17:22:16.865Z,68.90
2022-09-24T17:24:43.222Z,69.52
2022-09-24T17:27:09.570Z,69.11
2022-09-24T17:29:36.244Z,69.18
2022-09-24T17:32:02.796Z,69.59
2022-09-24T17:34:29.202Z,69.00
2022-09-24T17:36:56.527Z,69.32
2022-09-24T17:39:22.950Z,69.25
2022-09-24T17:41:49.297Z,69.52
2022-09-24T17:44:17.165Z,69.36
2022-09-24T17:46:44.293Z,69.27
2022-09-24T17:49:11.287Z,69.43
2022-09-24T17:51:38.035Z,69.07
2022-09-24T17:54:11.373Z,69.69
2022-09-24T17:56:40.990Z,69.86
2022-09-24T17:59:12.372Z,68.79
2022-09-24T18:01:40.674Z,69.36
2022-09-24T18:04:14.082Z,69.82
2022-09-24T18:06:42.091Z,69.33
2022-09-24T18:09:10.105Z,69.63
2022-09-24T18:11:48.943Z,70.13
2022-09-24T18:14:17.954Z,70.11
2022-09-24T18:16:45.387Z,70.24
2022-09-24T18:19:14.971Z,70.62
2022-09-24T18:21:41.385Z,70.80
2022-09-24T18:24:09.509Z,71.21
2022-09-24T18:26:37.589Z,70.90
2022-09-24T18:29:12.908Z,71.60
2022-09-24T18:31:41.054Z,71.64
2022-09-24T18:34:09.670Z,71.73
2022-09-24T18:36:38.502Z,72.22
2022-09-24T18:39:07.439Z,72.44
2022-09-24T18:41:33.914Z,72.24
2022-09-24T18:44:00.689Z,72.47
2022-09-24T18:46:29.513Z,72.31
2022-09-24T18:48:57.319Z,72.51
2022-09-24T18:51:26.974Z,72.42
2022-09-24T18:53:55.876Z,72.82
2022-09-24T18:56:24.051Z,72.66
2022-09-24T18:58:57.795Z,73.02
2022-09-24T19:01:25.196Z,73.36
2022-09-24T19:03:51.875Z,73.01
2022-09-24T19:06:18.277Z,73.45
2022-09-24T19:08:44.683Z,73.84
2022-09-24T19:11:13.869Z,73.40
2022-09-24T19:13:42.599Z,73.79
2022-09-24T19:16:11.954Z,73.67
2022-09-24T19:18:39.765Z,73.64
2022-09-24T19:21:09.130Z,74.24
2022-09-24T19:23:40.618Z,74.72
2022-09-24T19:26:09.089Z,74.22
2022-09-24T19:28:36.142Z,74.44
2022-09-24T19:31:02.839Z,75.04
2022-09-24T19:33:29.574Z,74.72
2022-09-24T19:35:58.296Z,74.74
2022-09-24T19:38:26.659Z,75.20
2022-09-24T19:41:06.924Z,75.23
2022-09-24T19:43:34.140Z,75.16
2022-09-24T19:46:06.911Z,75.27
2022-09-24T19:48:37.909Z,74.90
2022-09-24T19:51:07.202Z,74.85
2022-09-24T19:53:34.131Z,75.12
2022-09-24T19:56:00.888Z,75.18
2022-09-24T19:58:27.843Z,75.48
2022-09-24T20:00:54.260Z,75.76
2022-09-24T20:03:20.840Z,75.87
2022-09-24T20:05:47.246Z,76.18
2022-09-24T20:08:14.652Z,76.42
2022-09-24T20:10:42.132Z,76.42
2022-09-24T20:13:12.527Z,76.49
2022-09-24T20:15:40.015Z,76.58
2022-09-24T20:18:07.670Z,76.75
2022-09-24T20:20:34.254Z,76.74
2022-09-24T20:23:00.980Z,76.81
2022-09-24T20:25:46.502Z,77.04
2022-09-24T20:28:16.413Z,77.07
2022-09-24T20:30:43.570Z,77.20
2022-09-24T20:33:11.059Z,77.43
2022-09-24T20:35:41.557Z,77.27
2022-09-24T20:38:08.284Z,77.36
2022-09-24T20:40:36.485Z,77.79
2022-09-24T20:43:03.725Z,77.83
2022-09-24T20:45:31.298Z,77.82
2022-09-24T20:47:57.718Z,78.04
2022-09-24T20:50:24.052Z,78.13
2022-09-24T20:52:50.398Z,78.17
2022-09-24T20:55:16.810Z,78.09
2022-09-24T20:57:43.750Z,78.32
2022-09-24T21:00:14.016Z,78.50
2022-09-24T21:02:41.746Z,78.58
2022-09-24T21:05:09.862Z,78.91
2022-09-24T21:07:40.027Z,78.54
2022-09-24T21:10:08.941Z,78.90
2022-09-24T21:12:35.588Z,79.14
2022-09-24T21:15:02.298Z,78.94
2022-09-24T21:17:28.644Z,79.27
2022-09-24T21:19:54.963Z,79.06
2022-09-24T21:22:21.571Z,79.12
2022-09-24T21:24:52.078Z,79.03
2022-09-24T21:27:18.977Z,78.85
2022-09-24T21:29:47.207Z,79.03
2022-09-24T21:32:17.423Z,78.93
2022-09-24T21:34:44.553Z,78.53
2022-09-24T21:37:15.106Z,78.74
2022-09-24T21:39:43.056Z,78.83
2022-09-24T21:42:09.414Z,78.67
2022-09-24T21:44:36.105Z,78.46
2022-09-24T21:47:03.462Z,78.53
2022-09-24T21:49:36.362Z,78.28
2022-09-24T21:52:05.050Z,78.37
2022-09-24T21:54:33.395Z,78.32
2022-09-24T21:57:00.021Z,78.46
2022-09-24T21:59:45.050Z,78.76
2022-09-24T22:02:12.185Z,78.57
2022-09-24T22:04:39.090Z,78.51
2022-09-24T22:07:05.838Z,78.48
2022-09-24T22:09:32.537Z,78.62
2022-09-24T22:12:00.465Z,78.32
2022-09-24T22:14:27.417Z,78.30
2022-09-24T22:16:54.126Z,78.25
2022-09-24T22:19:20.546Z,78.09
2022-09-24T22:21:46.932Z,78.09
2022-09-24T22:24:13.422Z,78.21
2022-09-24T22:26:40.287Z,78.06
2022-09-24T22:29:06.619Z,77.82
2022-09-24T22:31:33.277Z,78.31
2022-09-24T22:34:18.499Z,78.55
2022-09-24T22:36:44.988Z,78.28
2022-09-24T22:39:11.306Z,78.66
2022-09-24T22:41:39.935Z,78.46
2022-09-24T22:44:07.068Z,78.23
2022-09-24T22:46:35.836Z,78.62
2022-09-24T22:49:04.530Z,78.62
2022-09-24T22:51:31.005Z,78.50
2022-09-24T22:53:58.641Z,78.53
2022-09-24T22:56:26.394Z,78.46
2022-09-24T22:58:58.554Z,78.41
2022-09-24T23:01:27.860Z,78.60
2022-09-24T23:03:55.805Z,78.73
2022-09-24T23:06:22.714Z,78.77
2022-09-24T23:08:49.764Z,78.81
2022-09-24T23:11:24.794Z,78.09
2022-09-24T23:13:57.138Z,78.02
2022-09-24T23:16:26.981Z,78.21
2022-09-24T23:18:55.508Z,78.03
2022-09-24T23:21:23.630Z,77.88
2022-09-24T23:23:55.227Z,77.40
2022-09-24T23:26:23.144Z,77.50
2022-09-24T23:28:53.003Z,77.50
2022-09-24T23:31:22.198Z,77.57
2022-09-24T23:33:49.719Z,77.42
2022-09-24T23:36:16.678Z,77.34
2022-09-24T23:38:43.963Z,77.25
2022-09-24T23:41:11.915Z,77.20
2022-09-24T23:43:38.718Z,77.25
2022-09-24T23:46:05.297Z,77.13
2022-09-24T23:48:32.526Z,77.17
2022-09-24T23:50:59.424Z,76.96
2022-09-24T23:53:26.632Z,77.13
2022-09-24T23:55:54.836Z,77.28
2022-09-24T23:58:23.182Z,77.26
